createdAt,value
2018-12-25T00:00:20.818Z,2.00
2018-12-25T00:01:26.369Z,1.70
2018-12-25T00:02:31.880Z,1.60
2018-12-25T00:03:37.411Z,1.60
2018-12-25T00:04:42.950Z,1.90
2018-12-25T00:05:48.481Z,1.80
2018-12-25T00:06:54.015Z,1.50
2018-12-25T00:07:59.540Z,1.50
2018-12-25T00:09:05.075Z,1.80
2018-12-25T00:10:10.603Z,2.30
2018-12-25T00:11:16.137Z,1.80
2018-12-25T00:12:21.669Z,2.30
2018-12-25T00:13:27.202Z,2.10
2018-12-25T00:14:32.746Z,2.20
2018-12-25T00:15:38.265Z,2.50
2018-12-25T00:16:43.795Z,2.70
2018-12-25T00:17:49.333Z,2.20
2018-12-25T00:21:58.020Z,2.10
2018-12-25T00:23:03.639Z,2.30
2018-12-25T00:25:02.012Z,3.00
2018-12-25T00:26:07.473Z,2.60
2018-12-25T00:27:13.006Z,1.90
2018-12-25T00:28:18.536Z,1.70
2018-12-25T00:29:24.063Z,1.40
2018-12-25T00:30:29.613Z,2.20
2018-12-25T00:31:35.125Z,1.30
2018-12-25T00:32:40.652Z,1.90
2018-12-25T00:33:46.191Z,1.50
2018-12-25T00:34:51.716Z,1.50
2018-12-25T00:35:57.246Z,1.90
2018-12-25T00:37:02.879Z,1.50
2018-12-25T00:38:08.313Z,1.50
2018-12-25T00:39:13.850Z,1.70
2018-12-25T00:40:19.383Z,1.70
2018-12-25T00:41:24.913Z,1.50
2018-12-25T00:42:30.440Z,1.40
2018-12-25T00:43:35.979Z,2.00
2018-12-25T00:44:41.506Z,1.30
2018-12-25T00:45:47.038Z,1.90
2018-12-25T00:46:52.568Z,1.30
2018-12-25T00:47:58.103Z,1.30
2018-12-25T00:49:03.635Z,1.60
2018-12-25T00:50:09.164Z,1.40
2018-12-25T00:51:14.698Z,1.60
2018-12-25T00:52:20.271Z,1.40
2018-12-25T00:53:25.776Z,1.30
2018-12-25T00:54:31.295Z,1.40
2018-12-25T00:55:36.825Z,1.80
2018-12-25T00:56:42.363Z,1.50
2018-12-25T00:57:47.891Z,1.10
2018-12-25T00:58:53.429Z,1.30
2018-12-25T00:59:58.955Z,1.30
2018-12-25T01:01:04.487Z,1.30
2018-12-25T01:02:10.020Z,1.50
2018-12-25T01:03:15.553Z,2.60
2018-12-25T01:04:21.084Z,2.70
2018-12-25T01:05:26.614Z,2.20
2018-12-25T01:06:32.146Z,1.40
2018-12-25T01:07:37.689Z,1.80
2018-12-25T01:08:43.216Z,1.50
2018-12-25T01:09:48.752Z,1.50
2018-12-25T01:10:54.282Z,1.40
2018-12-25T01:11:59.888Z,1.70
2018-12-25T01:13:05.339Z,2.10
2018-12-25T01:14:10.873Z,2.00
2018-12-25T01:15:16.404Z,1.30
2018-12-25T01:16:21.941Z,1.70
2018-12-25T01:17:27.473Z,1.50
2018-12-25T01:18:33.008Z,1.70
2018-12-25T01:19:38.539Z,1.50
2018-12-25T01:20:44.066Z,2.30
2018-12-25T01:21:49.598Z,2.30
2018-12-25T01:22:55.128Z,1.20
2018-12-25T01:24:00.666Z,1.50
2018-12-25T01:25:06.192Z,1.80
2018-12-25T01:26:11.726Z,2.20
2018-12-25T01:27:17.256Z,1.60
2018-12-25T01:28:22.789Z,1.50
2018-12-25T01:29:28.321Z,2.10
2018-12-25T01:30:33.854Z,1.60
2018-12-25T01:31:39.385Z,1.60
2018-12-25T01:32:44.915Z,1.50
2018-12-25T01:33:50.450Z,1.50
2018-12-25T01:34:55.988Z,1.20
2018-12-25T01:36:01.518Z,1.70
2018-12-25T01:37:07.049Z,1.30
2018-12-25T01:38:12.580Z,1.70
2018-12-25T01:39:18.109Z,1.60
2018-12-25T01:40:23.642Z,1.50
2018-12-25T01:41:29.177Z,1.60
2018-12-25T01:42:34.707Z,1.90
2018-12-25T01:43:40.237Z,2.30
2018-12-25T01:44:45.775Z,2.20
2018-12-25T01:45:51.301Z,1.90
2018-12-25T01:46:56.837Z,1.60
2018-12-25T01:48:02.371Z,1.70
2018-12-25T01:49:07.897Z,2.00
2018-12-25T01:50:13.437Z,1.90
2018-12-25T01:51:18.969Z,1.80
2018-12-25T01:52:24.497Z,2.20
2018-12-25T01:53:30.034Z,2.10
2018-12-25T01:54:35.566Z,1.50
2018-12-25T01:55:41.090Z,1.50
2018-12-25T01:56:46.622Z,1.30
2018-12-25T01:57:52.155Z,1.30
2018-12-25T01:58:57.683Z,1.90
2018-12-25T02:00:03.220Z,2.00
2018-12-25T02:01:08.751Z,1.40
2018-12-25T02:02:14.305Z,1.30
2018-12-25T02:03:19.819Z,1.40
2018-12-25T02:04:25.343Z,1.40
2018-12-25T02:05:30.878Z,1.60
2018-12-25T02:06:36.408Z,1.40
2018-12-25T02:07:41.943Z,1.60
2018-12-25T02:08:47.474Z,1.70
2018-12-25T02:09:53.012Z,1.50
2018-12-25T02:10:58.535Z,1.40
2018-12-25T02:12:04.066Z,1.70
2018-12-25T02:13:09.602Z,1.60
2018-12-25T02:14:15.132Z,1.70
2018-12-25T02:15:20.671Z,1.40
2018-12-25T02:16:26.198Z,1.90
2018-12-25T02:17:31.730Z,1.50
2018-12-25T02:18:37.258Z,1.50
2018-12-25T02:19:42.792Z,1.30
2018-12-25T02:20:48.329Z,1.90
2018-12-25T02:21:53.854Z,1.40
2018-12-25T02:22:59.386Z,1.80
2018-12-25T02:24:04.920Z,1.50
2018-12-25T02:25:10.448Z,1.70
2018-12-25T02:26:16.071Z,1.40
2018-12-25T02:27:21.518Z,1.30
2018-12-25T02:28:27.052Z,1.80
2018-12-25T02:29:32.579Z,1.30
2018-12-25T02:30:38.113Z,1.70
2018-12-25T02:31:43.641Z,1.30
2018-12-25T02:32:49.173Z,1.10
2018-12-25T02:33:54.709Z,1.40
2018-12-25T02:35:00.237Z,1.20
2018-12-25T02:36:05.773Z,1.40
2018-12-25T02:37:11.298Z,1.10
2018-12-25T02:38:16.831Z,1.60
2018-12-25T02:39:22.369Z,1.50
2018-12-25T02:40:27.895Z,1.90
2018-12-25T02:41:33.429Z,3.10
2018-12-25T02:42:38.955Z,3.20
2018-12-25T02:43:44.492Z,3.00
2018-12-25T02:44:50.026Z,3.20
2018-12-25T02:45:55.555Z,2.30
2018-12-25T02:47:01.088Z,2.40
2018-12-25T02:48:06.621Z,5.60
2018-12-25T02:49:12.149Z,5.20
2018-12-25T02:50:17.685Z,5.40
2018-12-25T02:51:23.212Z,3.00
2018-12-25T02:52:28.747Z,3.10
2018-12-25T02:53:34.278Z,2.70
2018-12-25T02:54:39.821Z,2.30
2018-12-25T02:55:45.342Z,2.00
2018-12-25T02:56:50.872Z,1.90
2018-12-25T02:57:56.404Z,1.70
2018-12-25T02:59:01.944Z,3.20
2018-12-25T03:00:07.466Z,2.40
2018-12-25T03:01:13.002Z,2.30
2018-12-25T03:02:18.529Z,1.90
2018-12-25T03:03:24.069Z,1.60
2018-12-25T03:04:29.592Z,1.70
2018-12-25T03:05:35.122Z,1.90
2018-12-25T03:06:40.662Z,1.60
2018-12-25T03:07:46.191Z,1.80
2018-12-25T03:08:51.722Z,1.40
2018-12-25T03:09:57.252Z,2.60
2018-12-25T03:11:02.791Z,2.30
2018-12-25T03:12:08.319Z,1.50
2018-12-25T03:13:13.846Z,1.60
2018-12-25T03:14:19.379Z,1.80
2018-12-25T03:15:24.910Z,2.00
2018-12-25T03:16:30.452Z,1.90
2018-12-25T03:17:36.000Z,1.50
2018-12-25T03:18:41.504Z,1.90
2018-12-25T03:19:47.037Z,1.10
2018-12-25T03:20:52.572Z,1.70
2018-12-25T03:21:58.100Z,1.50
2018-12-25T03:23:03.636Z,1.30
2018-12-25T03:24:09.241Z,1.10
2018-12-25T03:25:14.714Z,1.40
2018-12-25T03:26:20.231Z,1.30
2018-12-25T03:27:25.795Z,1.50
2018-12-25T03:28:31.294Z,1.10
2018-12-25T03:29:36.823Z,1.10
2018-12-25T03:30:42.366Z,1.20
2018-12-25T03:31:47.889Z,1.40
2018-12-25T03:32:53.421Z,1.50
2018-12-25T03:33:58.951Z,1.30
2018-12-25T03:35:04.485Z,1.40
2018-12-25T03:36:10.013Z,1.30
2018-12-25T03:37:15.545Z,1.20
2018-12-25T03:38:21.076Z,1.20
2018-12-25T03:39:26.624Z,1.20
2018-12-25T03:40:32.146Z,1.40
2018-12-25T03:41:37.676Z,1.00
2018-12-25T03:42:43.377Z,1.40
2018-12-25T03:43:48.738Z,1.40
2018-12-25T03:44:54.267Z,1.10
2018-12-25T03:45:59.805Z,1.20
2018-12-25T03:47:05.333Z,1.10
2018-12-25T03:48:10.862Z,1.40
2018-12-25T03:49:16.396Z,1.00
2018-12-25T03:50:21.926Z,1.40
2018-12-25T03:51:27.459Z,1.20
2018-12-25T03:52:32.993Z,1.30
2018-12-25T03:53:38.520Z,1.40
2018-12-25T03:54:44.054Z,1.40
2018-12-25T03:55:49.594Z,1.00
2018-12-25T03:56:55.117Z,1.30
2018-12-25T03:58:00.654Z,1.30
2018-12-25T03:59:06.182Z,1.20
2018-12-25T04:00:11.715Z,1.20
2018-12-25T04:01:17.245Z,1.10
2018-12-25T04:02:22.784Z,1.20
2018-12-25T04:04:59.985Z,1.20
2018-12-25T04:06:05.406Z,1.20
2018-12-25T04:08:03.822Z,1.20
2018-12-25T04:09:09.342Z,1.30
2018-12-25T04:11:07.863Z,1.50
2018-12-25T04:12:13.268Z,1.00
2018-12-25T04:14:11.698Z,1.00
2018-12-25T04:15:17.205Z,1.50
2018-12-25T04:16:22.726Z,1.50
2018-12-25T04:17:28.265Z,1.60
2018-12-25T04:18:33.789Z,1.50
2018-12-25T04:19:39.321Z,1.00
2018-12-25T04:20:44.858Z,1.50
2018-12-25T04:21:50.387Z,1.30
2018-12-25T04:22:55.913Z,1.30
2018-12-25T04:24:01.451Z,1.30
2018-12-25T04:25:06.982Z,1.10
2018-12-25T04:26:12.511Z,1.30
2018-12-25T04:27:18.043Z,1.40
2018-12-25T04:28:23.578Z,1.20
2018-12-25T04:29:29.103Z,1.30
2018-12-25T04:30:34.639Z,1.30
2018-12-25T04:31:40.175Z,1.40
2018-12-25T04:32:45.701Z,1.30
2018-12-25T04:33:51.233Z,1.40
2018-12-25T04:34:56.766Z,1.30
2018-12-25T04:36:02.296Z,1.40
2018-12-25T04:37:07.831Z,1.20
2018-12-25T04:38:13.367Z,1.50
2018-12-25T04:39:18.893Z,1.10
2018-12-25T04:40:24.424Z,1.40
2018-12-25T04:41:29.953Z,1.10
2018-12-25T04:42:35.487Z,1.00
2018-12-25T04:43:41.019Z,1.30
2018-12-25T04:44:46.550Z,1.40
2018-12-25T04:45:52.085Z,1.40
2018-12-25T04:46:57.614Z,1.30
2018-12-25T04:48:03.151Z,1.50
2018-12-25T04:49:08.686Z,1.20
2018-12-25T04:50:14.210Z,1.20
2018-12-25T04:51:19.741Z,1.20
2018-12-25T04:52:25.276Z,1.20
2018-12-25T04:53:30.810Z,1.20
2018-12-25T04:54:36.341Z,1.30
2018-12-25T04:55:41.873Z,1.10
2018-12-25T04:56:47.401Z,1.30
2018-12-25T04:57:52.937Z,1.50
2018-12-25T04:58:58.470Z,1.20
2018-12-25T05:00:03.999Z,1.20
2018-12-25T05:01:09.532Z,1.30
2018-12-25T05:02:15.059Z,1.10
2018-12-25T05:03:20.592Z,1.40
2018-12-25T05:04:26.128Z,1.30
2018-12-25T05:05:31.656Z,1.40
2018-12-25T05:06:37.184Z,1.10
2018-12-25T05:07:42.720Z,1.20
2018-12-25T05:08:48.250Z,1.40
2018-12-25T05:09:53.782Z,1.10
2018-12-25T05:10:59.315Z,1.30
2018-12-25T05:12:04.851Z,1.60
2018-12-25T05:13:10.377Z,1.30
2018-12-25T05:14:15.910Z,1.30
2018-12-25T05:15:21.446Z,1.50
2018-12-25T05:16:27.452Z,1.50
2018-12-25T05:17:32.504Z,1.00
2018-12-25T05:18:38.044Z,1.80
2018-12-25T05:19:43.570Z,1.60
2018-12-25T05:20:49.101Z,1.30
2018-12-25T05:21:54.637Z,1.60
2018-12-25T05:23:00.170Z,1.20
2018-12-25T05:24:05.695Z,1.30
2018-12-25T05:25:11.227Z,1.20
2018-12-25T05:26:16.761Z,1.00
2018-12-25T05:27:22.291Z,1.50
2018-12-25T05:28:27.826Z,1.30
2018-12-25T05:29:33.356Z,1.40
2018-12-25T05:30:38.946Z,1.30
2018-12-25T05:31:44.426Z,1.50
2018-12-25T05:32:49.955Z,1.20
2018-12-25T05:33:55.488Z,1.40
2018-12-25T05:35:01.128Z,1.30
2018-12-25T05:36:06.548Z,1.30
2018-12-25T05:37:12.855Z,1.40
2018-12-25T05:38:17.611Z,1.20
2018-12-25T05:39:23.142Z,1.20
2018-12-25T05:40:28.677Z,1.40
2018-12-25T05:41:34.204Z,1.20
2018-12-25T05:42:39.738Z,1.50
2018-12-25T05:43:45.268Z,1.60
2018-12-25T05:44:50.810Z,1.40
2018-12-25T05:45:56.334Z,1.30
2018-12-25T05:47:01.867Z,1.40
2018-12-25T05:48:07.395Z,1.40
2018-12-25T05:49:12.928Z,1.20
2018-12-25T05:50:18.460Z,1.60
2018-12-25T05:51:23.996Z,1.00
2018-12-25T05:52:29.525Z,1.20
2018-12-25T05:53:35.057Z,1.20
2018-12-25T05:54:40.587Z,1.40
2018-12-25T05:55:46.118Z,1.40
2018-12-25T05:56:51.649Z,1.30
2018-12-25T05:57:57.182Z,1.30
2018-12-25T05:59:02.711Z,1.00
2018-12-25T06:00:08.244Z,1.40
2018-12-25T06:01:13.780Z,1.30
2018-12-25T06:02:19.311Z,2.30
2018-12-25T06:03:24.844Z,2.40
2018-12-25T06:04:30.375Z,1.50
2018-12-25T06:05:35.906Z,1.30
2018-12-25T06:06:41.437Z,1.30
2018-12-25T06:07:46.969Z,1.40
2018-12-25T06:08:52.502Z,1.30
2018-12-25T06:09:58.036Z,1.20
2018-12-25T06:11:03.566Z,1.50
2018-12-25T06:12:09.099Z,1.70
2018-12-25T06:13:14.633Z,1.40
2018-12-25T06:14:20.159Z,1.50
2018-12-25T06:15:25.694Z,1.70
2018-12-25T06:16:31.224Z,1.90
2018-12-25T06:17:36.764Z,1.30
2018-12-25T06:18:42.288Z,2.00
2018-12-25T06:19:47.822Z,1.50
2018-12-25T06:20:55.244Z,1.30
2018-12-25T06:21:58.884Z,1.30
2018-12-25T06:23:04.418Z,1.60
2018-12-25T06:24:09.954Z,1.30
2018-12-25T06:25:15.480Z,1.70
2018-12-25T06:26:21.012Z,1.20
2018-12-25T06:27:26.544Z,1.30
2018-12-25T06:28:32.082Z,1.20
2018-12-25T06:29:37.610Z,1.80
2018-12-25T06:30:43.140Z,1.50
2018-12-25T06:31:48.675Z,1.30
2018-12-25T06:32:54.205Z,1.60
2018-12-25T06:33:59.743Z,1.20
2018-12-25T06:35:05.268Z,1.70
2018-12-25T06:36:10.800Z,1.50
2018-12-25T06:37:16.337Z,1.20
2018-12-25T06:38:21.867Z,1.50
2018-12-25T06:39:27.397Z,1.30
2018-12-25T06:40:32.930Z,1.30
2018-12-25T06:41:38.459Z,1.40
2018-12-25T06:42:43.991Z,1.10
2018-12-25T06:43:49.523Z,1.70
2018-12-25T06:44:55.056Z,1.30
2018-12-25T06:46:00.584Z,1.40
2018-12-25T06:47:06.119Z,1.20
2018-12-25T06:48:11.652Z,1.10
2018-12-25T06:49:17.185Z,1.20
2018-12-25T06:50:22.717Z,1.60
2018-12-25T06:51:28.246Z,1.40
2018-12-25T06:52:33.782Z,1.30
2018-12-25T06:53:39.312Z,1.40
2018-12-25T06:54:44.842Z,1.50
2018-12-25T06:55:50.378Z,1.30
2018-12-25T06:56:55.915Z,1.70
2018-12-25T06:58:01.445Z,1.90
2018-12-25T06:59:06.969Z,1.50
2018-12-25T07:00:12.502Z,1.60
2018-12-25T07:01:18.038Z,1.10
2018-12-25T07:02:23.567Z,1.10
2018-12-25T07:03:29.099Z,1.50
2018-12-25T07:04:34.631Z,1.50
2018-12-25T07:05:40.164Z,1.20
2018-12-25T07:06:45.696Z,1.20
2018-12-25T07:07:51.236Z,1.30
2018-12-25T07:08:56.763Z,1.20
2018-12-25T07:10:02.290Z,1.40
2018-12-25T07:11:07.823Z,1.50
2018-12-25T07:12:13.353Z,1.20
2018-12-25T07:13:18.887Z,1.40
2018-12-25T07:14:24.417Z,1.60
2018-12-25T07:15:33.223Z,2.00
2018-12-25T07:16:35.482Z,2.30
2018-12-25T07:17:41.020Z,2.60
2018-12-25T07:18:46.551Z,1.40
2018-12-25T07:19:52.077Z,1.50
2018-12-25T07:20:57.620Z,1.70
2018-12-25T07:22:03.141Z,1.50
2018-12-25T07:23:08.680Z,1.70
2018-12-25T07:24:14.210Z,2.10
2018-12-25T07:25:19.736Z,2.50
2018-12-25T07:26:25.267Z,1.60
2018-12-25T07:27:30.806Z,1.70
2018-12-25T07:28:36.331Z,2.10
2018-12-25T07:29:41.864Z,2.00
2018-12-25T07:30:47.399Z,1.40
2018-12-25T07:31:52.927Z,1.90
2018-12-25T07:32:58.463Z,2.20
2018-12-25T07:34:03.991Z,1.90
2018-12-25T07:35:09.530Z,1.30
2018-12-25T07:36:15.076Z,1.50
2018-12-25T07:37:20.587Z,1.20
2018-12-25T07:38:26.155Z,1.70
2018-12-25T07:39:31.681Z,1.50
2018-12-25T07:40:37.187Z,1.40
2018-12-25T07:41:42.722Z,2.10
2018-12-25T07:42:48.270Z,2.20
2018-12-25T07:43:53.783Z,1.70
2018-12-25T07:44:59.313Z,1.50
2018-12-25T07:46:04.847Z,1.60
2018-12-25T07:47:11.321Z,1.40
2018-12-25T07:48:15.912Z,1.50
2018-12-25T07:49:21.442Z,1.20
2018-12-25T07:50:26.970Z,1.30
2018-12-25T07:51:32.511Z,1.70
2018-12-25T07:52:38.038Z,1.50
2018-12-25T07:53:43.572Z,1.30
2018-12-25T07:54:49.099Z,1.50
2018-12-25T07:55:54.634Z,1.60
2018-12-25T07:57:00.164Z,1.50
2018-12-25T07:58:05.694Z,1.70
2018-12-25T07:59:11.229Z,1.20
2018-12-25T08:00:16.762Z,1.40
2018-12-25T08:01:22.293Z,1.60
2018-12-25T08:02:27.827Z,1.80
2018-12-25T08:03:33.356Z,1.50
2018-12-25T08:04:38.898Z,1.60
2018-12-25T08:05:44.427Z,1.50
2018-12-25T08:06:49.959Z,1.40
2018-12-25T08:07:55.489Z,1.60
2018-12-25T08:09:01.016Z,1.30
2018-12-25T08:10:06.557Z,1.40
2018-12-25T08:11:12.082Z,1.70
2018-12-25T08:12:17.635Z,1.50
2018-12-25T08:13:23.145Z,1.50
2018-12-25T08:14:28.676Z,1.40
2018-12-25T08:15:34.216Z,1.40
2018-12-25T08:16:39.745Z,1.30
2018-12-25T08:17:45.276Z,1.60
2018-12-25T08:18:50.807Z,1.50
2018-12-25T08:19:56.336Z,1.30
2018-12-25T08:21:01.870Z,1.10
2018-12-25T08:22:07.403Z,1.50
2018-12-25T08:23:12.934Z,1.40
2018-12-25T08:24:18.471Z,1.40
2018-12-25T08:25:23.999Z,1.30
2018-12-25T08:26:29.532Z,1.20
2018-12-25T08:27:35.068Z,1.20
2018-12-25T08:28:40.599Z,1.20
2018-12-25T08:29:46.170Z,1.60
2018-12-25T08:30:51.666Z,1.90
2018-12-25T08:31:57.193Z,1.80
2018-12-25T08:33:02.724Z,1.70
2018-12-25T08:34:08.258Z,1.20
2018-12-25T08:35:13.789Z,1.70
2018-12-25T08:36:19.333Z,3.20
2018-12-25T08:37:24.851Z,2.40
2018-12-25T08:38:30.392Z,2.10
2018-12-25T08:39:35.921Z,2.20
2018-12-25T08:40:41.451Z,1.70
2018-12-25T08:41:46.988Z,1.70
2018-12-25T08:42:52.516Z,1.50
2018-12-25T08:43:58.053Z,1.80
2018-12-25T08:45:03.581Z,1.80
2018-12-25T08:46:09.112Z,1.30
2018-12-25T08:47:14.642Z,1.60
2018-12-25T08:48:20.178Z,1.30
2018-12-25T08:49:25.708Z,2.20
2018-12-25T08:50:31.248Z,3.40
2018-12-25T08:51:37.747Z,4.10
2018-12-25T08:52:42.306Z,4.80
2018-12-25T08:53:47.836Z,4.50
2018-12-25T08:54:53.370Z,3.20
2018-12-25T08:55:58.907Z,4.30
2018-12-25T08:57:04.432Z,5.10
2018-12-25T08:58:09.969Z,4.20
2018-12-25T08:59:15.498Z,8.00
2018-12-25T09:00:21.038Z,7.70
2018-12-25T09:01:26.570Z,8.00
2018-12-25T09:02:32.095Z,5.50
2018-12-25T09:03:37.628Z,7.00
2018-12-25T09:04:43.163Z,7.70
2018-12-25T09:05:48.694Z,3.20
2018-12-25T09:06:54.230Z,2.30
2018-12-25T09:07:59.760Z,2.30
2018-12-25T09:09:05.291Z,2.00
2018-12-25T09:10:10.825Z,1.70
2018-12-25T09:11:16.358Z,1.40
2018-12-25T09:12:21.894Z,2.00
2018-12-25T09:13:27.422Z,1.50
2018-12-25T09:14:32.950Z,1.50
2018-12-25T09:15:38.484Z,1.20
2018-12-25T09:16:44.022Z,1.70
2018-12-25T09:17:49.555Z,1.30
2018-12-25T09:18:55.088Z,1.50
2018-12-25T09:20:00.619Z,1.60
2018-12-25T09:21:06.146Z,1.40
2018-12-25T09:22:11.682Z,1.10
2018-12-25T09:23:17.219Z,1.20
2018-12-25T09:24:22.745Z,1.50
2018-12-25T09:25:28.280Z,1.50
2018-12-25T09:26:33.819Z,1.50
2018-12-25T09:27:39.349Z,1.30
2018-12-25T09:28:44.882Z,1.70
2018-12-25T09:29:50.412Z,1.50
2018-12-25T09:30:55.953Z,1.60
2018-12-25T09:32:01.579Z,1.80
2018-12-25T09:33:07.013Z,1.70
2018-12-25T09:34:12.541Z,1.50
2018-12-25T09:35:18.075Z,1.50
2018-12-25T09:36:23.610Z,1.60
2018-12-25T09:37:29.142Z,1.30
2018-12-25T09:38:34.678Z,1.30
2018-12-25T09:39:40.220Z,1.50
2018-12-25T09:40:45.737Z,1.40
2018-12-25T09:41:51.271Z,1.40
2018-12-25T09:42:56.802Z,1.40
2018-12-25T09:44:02.342Z,1.10
2018-12-25T09:45:07.876Z,1.40
2018-12-25T09:46:13.408Z,1.40
2018-12-25T09:47:18.935Z,1.70
2018-12-25T09:48:24.472Z,2.00
2018-12-25T09:49:30.000Z,2.20
2018-12-25T09:50:35.535Z,2.10
2018-12-25T09:51:41.066Z,1.50
2018-12-25T09:52:46.602Z,2.00
2018-12-25T09:53:52.133Z,2.50
2018-12-25T09:54:57.665Z,1.70
2018-12-25T09:56:03.196Z,1.70
2018-12-25T09:57:08.733Z,1.70
2018-12-25T09:58:14.276Z,1.70
2018-12-25T09:59:19.795Z,1.90
2018-12-25T10:00:25.331Z,1.60
2018-12-25T10:01:30.869Z,2.10
2018-12-25T10:02:36.394Z,1.60
2018-12-25T10:03:41.936Z,1.80
2018-12-25T10:04:47.462Z,2.00
2018-12-25T10:05:52.996Z,1.10
2018-12-25T10:06:58.527Z,1.60
2018-12-25T10:08:04.061Z,1.20
2018-12-25T10:09:09.592Z,1.50
2018-12-25T10:10:15.126Z,1.50
2018-12-25T10:11:20.657Z,2.00
2018-12-25T10:12:27.225Z,2.70
2018-12-25T10:13:31.729Z,2.70
2018-12-25T10:14:37.259Z,2.30
2018-12-25T10:15:42.794Z,1.90
2018-12-25T10:16:49.932Z,2.10
2018-12-25T10:17:53.859Z,1.60
2018-12-25T10:18:59.390Z,1.80
2018-12-25T10:20:04.923Z,1.90
2018-12-25T10:21:10.459Z,1.90
2018-12-25T10:22:16.776Z,2.20
2018-12-25T10:23:21.523Z,1.60
2018-12-25T10:24:27.058Z,1.30
2018-12-25T10:25:32.588Z,2.00
2018-12-25T10:26:38.129Z,2.60
2018-12-25T10:27:43.659Z,1.50
2018-12-25T10:28:49.187Z,2.00
2018-12-25T10:29:54.723Z,1.50
2018-12-25T10:31:00.257Z,2.30
2018-12-25T10:32:05.788Z,2.40
2018-12-25T10:33:11.332Z,2.10
2018-12-25T10:34:16.861Z,1.70
2018-12-25T10:35:22.386Z,1.50
2018-12-25T10:36:27.923Z,1.40
2018-12-25T10:37:33.452Z,1.50
2018-12-25T10:38:38.989Z,1.20
2018-12-25T10:39:44.523Z,1.20
2018-12-25T10:40:50.058Z,1.60
2018-12-25T10:41:55.590Z,1.80
2018-12-25T10:43:01.132Z,1.40
2018-12-25T10:44:06.662Z,1.50
2018-12-25T10:45:12.190Z,1.60
2018-12-25T10:46:17.721Z,1.80
2018-12-25T10:47:23.256Z,1.80
2018-12-25T10:48:28.786Z,2.10
2018-12-25T10:49:34.329Z,1.90
2018-12-25T10:50:41.775Z,1.70
2018-12-25T10:51:45.392Z,1.70
2018-12-25T10:52:50.919Z,1.50
2018-12-25T10:53:56.452Z,1.60
2018-12-25T10:55:01.990Z,1.90
2018-12-25T10:56:07.521Z,1.60
2018-12-25T10:57:13.086Z,1.70
2018-12-25T10:58:18.593Z,1.90
2018-12-25T10:59:24.123Z,1.70
2018-12-25T11:00:29.653Z,1.60
2018-12-25T11:01:35.193Z,2.10
2018-12-25T11:02:40.724Z,2.10
2018-12-25T11:03:46.248Z,1.90
2018-12-25T11:04:51.788Z,2.00
2018-12-25T11:05:57.323Z,1.80
2018-12-25T11:07:02.855Z,1.90
2018-12-25T11:08:08.384Z,2.00
2018-12-25T11:09:14.057Z,2.00
2018-12-25T11:10:19.457Z,2.10
2018-12-25T11:11:24.991Z,2.20
2018-12-25T11:12:30.517Z,2.20
2018-12-25T11:13:36.050Z,2.20
2018-12-25T11:14:41.586Z,2.20
2018-12-25T11:15:47.118Z,2.30
2018-12-25T11:16:52.651Z,2.50
2018-12-25T11:17:58.188Z,2.30
2018-12-25T11:19:03.720Z,2.20
2018-12-25T11:20:11.588Z,2.00
2018-12-25T11:21:14.782Z,2.90
2018-12-25T11:22:20.318Z,2.50
2018-12-25T11:23:25.851Z,2.40
2018-12-25T11:24:31.386Z,3.00
2018-12-25T11:25:36.917Z,2.90
2018-12-25T11:26:42.454Z,2.40
2018-12-25T11:27:47.982Z,2.30
2018-12-25T11:28:53.518Z,2.80
2018-12-25T11:29:59.052Z,3.10
2018-12-25T11:31:04.583Z,2.80
2018-12-25T11:32:10.116Z,2.70
2018-12-25T11:33:15.659Z,3.00
2018-12-25T11:34:21.187Z,2.50
2018-12-25T11:35:26.724Z,2.50
2018-12-25T11:36:32.248Z,2.60
2018-12-25T11:37:37.786Z,3.00
2018-12-25T11:38:43.317Z,2.60
2018-12-25T11:39:49.749Z,3.00
2018-12-25T11:40:54.388Z,3.10
2018-12-25T11:43:31.511Z,2.70
2018-12-25T11:44:37.027Z,2.90
2018-12-25T11:45:42.559Z,3.00
2018-12-25T11:46:48.096Z,2.30
2018-12-25T11:47:53.627Z,2.70
2018-12-25T11:48:59.154Z,3.00
2018-12-25T11:50:04.683Z,3.40
2018-12-25T11:51:10.222Z,2.50
2018-12-25T11:52:15.754Z,3.10
2018-12-25T11:53:21.282Z,2.60
2018-12-25T11:54:26.817Z,2.80
2018-12-25T11:55:32.405Z,3.00
2018-12-25T11:56:37.883Z,2.60
2018-12-25T11:57:43.418Z,2.70
2018-12-25T11:58:48.957Z,3.20
2018-12-25T11:59:54.484Z,3.20
2018-12-25T12:01:00.027Z,3.00
2018-12-25T12:02:05.560Z,2.90
2018-12-25T12:03:11.089Z,2.80
2018-12-25T12:04:16.623Z,3.10
2018-12-25T12:05:22.161Z,3.20
2018-12-25T12:06:27.692Z,3.00
2018-12-25T12:07:33.223Z,2.70
2018-12-25T12:08:38.750Z,2.10
2018-12-25T12:09:44.298Z,2.80
2018-12-25T12:10:49.824Z,3.20
2018-12-25T12:11:55.369Z,3.30
2018-12-25T12:13:00.889Z,3.40
2018-12-25T12:14:06.420Z,2.70
2018-12-25T12:15:11.950Z,2.70
2018-12-25T12:16:17.485Z,3.00
2018-12-25T12:17:23.019Z,2.90
2018-12-25T12:18:28.552Z,3.60
2018-12-25T12:19:34.085Z,2.90
2018-12-25T12:20:39.619Z,2.90
2018-12-25T12:21:45.158Z,2.50
2018-12-25T12:22:50.685Z,2.50
2018-12-25T12:23:56.218Z,2.70
2018-12-25T12:25:01.752Z,2.70
2018-12-25T12:26:07.293Z,2.70
2018-12-25T12:27:12.818Z,2.60
2018-12-25T12:28:18.359Z,2.30
2018-12-25T12:29:23.884Z,3.10
2018-12-25T12:30:29.425Z,3.30
2018-12-25T12:31:34.955Z,3.10
2018-12-25T12:32:40.486Z,2.70
2018-12-25T12:33:46.024Z,2.40
2018-12-25T12:34:51.553Z,2.70
2018-12-25T12:35:57.087Z,3.70
2018-12-25T12:37:02.622Z,2.80
2018-12-25T12:38:08.158Z,3.50
2018-12-25T12:39:13.691Z,2.70
2018-12-25T12:40:19.219Z,2.50
2018-12-25T12:41:24.757Z,3.40
2018-12-25T12:42:30.291Z,2.80
2018-12-25T12:43:35.816Z,2.80
2018-12-25T12:44:41.362Z,2.80
2018-12-25T12:45:46.886Z,2.30
2018-12-25T12:46:52.425Z,2.70
2018-12-25T12:47:57.990Z,4.40
2018-12-25T12:49:03.642Z,2.80
2018-12-25T12:50:09.023Z,2.80
2018-12-25T12:51:14.558Z,2.70
2018-12-25T12:52:20.274Z,2.40
2018-12-25T12:53:25.681Z,2.70
2018-12-25T12:54:31.179Z,2.90
2018-12-25T12:55:36.682Z,2.60
2018-12-25T12:56:42.220Z,3.10
2018-12-25T12:57:47.756Z,2.60
2018-12-25T12:58:53.287Z,2.60
2018-12-25T12:59:58.828Z,2.50
2018-12-25T13:01:04.351Z,2.20
2018-12-25T13:02:09.901Z,2.30
2018-12-25T13:03:15.422Z,2.20
2018-12-25T13:04:20.957Z,3.10
2018-12-25T13:05:26.488Z,2.60
2018-12-25T13:06:32.221Z,2.60
2018-12-25T13:07:37.550Z,3.60
2018-12-25T13:08:43.086Z,2.50
2018-12-25T13:09:48.619Z,2.80
2018-12-25T13:10:54.259Z,2.60
2018-12-25T13:11:59.718Z,2.50
2018-12-25T13:13:05.226Z,2.70
2018-12-25T13:14:10.752Z,2.60
2018-12-25T13:15:16.316Z,2.50
2018-12-25T13:16:21.854Z,2.50
2018-12-25T13:17:27.371Z,2.50
2018-12-25T13:18:32.891Z,2.60
2018-12-25T13:19:38.602Z,2.90
2018-12-25T13:20:43.958Z,3.30
2018-12-25T13:21:49.485Z,4.80
2018-12-25T13:22:55.341Z,3.10
2018-12-25T13:24:00.569Z,2.70
2018-12-25T13:25:06.091Z,2.80
2018-12-25T13:26:11.618Z,1.90
2018-12-25T13:27:17.308Z,2.70
2018-12-25T13:28:22.690Z,2.40
2018-12-25T13:29:28.221Z,2.70
2018-12-25T13:30:33.752Z,3.70
2018-12-25T13:31:39.295Z,3.20
2018-12-25T13:32:44.827Z,2.10
2018-12-25T13:33:50.363Z,2.60
2018-12-25T13:34:57.561Z,2.60
2018-12-25T13:36:01.473Z,2.40
2018-12-25T13:37:06.958Z,3.00
2018-12-25T13:38:12.497Z,3.30
2018-12-25T13:39:18.018Z,2.90
2018-12-25T13:40:23.569Z,3.20
2018-12-25T13:41:29.086Z,2.80
2018-12-25T13:42:34.621Z,3.00
2018-12-25T13:43:40.163Z,2.90
2018-12-25T13:44:45.683Z,3.20
2018-12-25T13:45:51.276Z,3.00
2018-12-25T13:48:28.341Z,3.80
2018-12-25T13:49:33.855Z,3.40
2018-12-25T13:51:32.278Z,3.60
2018-12-25T13:52:37.793Z,3.00
2018-12-25T13:54:36.196Z,3.50
2018-12-25T13:55:41.724Z,3.00
2018-12-25T13:56:47.257Z,3.30
2018-12-25T13:57:52.789Z,2.70
2018-12-25T13:58:58.322Z,3.10
2018-12-25T14:00:03.850Z,3.10
2018-12-25T14:01:09.391Z,3.20
2018-12-25T14:02:14.917Z,3.20
2018-12-25T14:03:20.456Z,3.60
2018-12-25T14:04:25.988Z,2.80
2018-12-25T14:05:31.522Z,3.60
2018-12-25T14:06:37.055Z,3.60
2018-12-25T14:07:42.591Z,2.80
2018-12-25T14:08:48.124Z,3.10
2018-12-25T14:09:53.650Z,2.90
2018-12-25T14:10:59.186Z,3.70
2018-12-25T14:12:04.718Z,3.40
2018-12-25T14:13:10.256Z,2.90
2018-12-25T14:14:15.796Z,3.80
2018-12-25T14:15:21.318Z,3.30
2018-12-25T14:16:26.849Z,2.40
2018-12-25T14:17:32.385Z,2.30
2018-12-25T14:18:37.919Z,2.60
2018-12-25T14:19:43.458Z,2.60
2018-12-25T14:20:48.985Z,2.40
2018-12-25T14:21:54.529Z,3.40
2018-12-25T14:23:00.048Z,2.70
2018-12-25T14:24:05.589Z,2.60
2018-12-25T14:25:11.218Z,2.60
2018-12-25T14:26:16.648Z,2.60
2018-12-25T14:27:22.182Z,3.00
2018-12-25T14:28:27.714Z,2.80
2018-12-25T14:29:33.252Z,3.30
2018-12-25T14:30:38.785Z,3.20
2018-12-25T14:31:44.321Z,2.60
2018-12-25T14:32:49.853Z,2.30
2018-12-25T14:33:55.378Z,3.40
2018-12-25T14:35:00.922Z,3.40
2018-12-25T14:36:06.444Z,3.00
2018-12-25T14:37:11.978Z,3.00
2018-12-25T14:38:17.512Z,2.40
2018-12-25T14:39:23.046Z,3.00
2018-12-25T14:40:28.577Z,2.90
2018-12-25T14:41:34.118Z,3.00
2018-12-25T14:42:39.650Z,3.10
2018-12-25T14:43:45.174Z,2.60
2018-12-25T14:44:50.722Z,2.60